Time;durP1;ratioP1;P1;durP2;ratioP2;P2;SDS_P1;SDS_P2;PMS_P1;PMS_P2;Temp;Humidity;BMP_temperature;BMP_pressure;BME280_temperature;BME280_humidity;BME280_pressure;Samples;Min_cycle;Max_cycle;Signal;HPM_P1;HPM_P2
2023/09/24 00:00:59;;;;;;;5.77;3.43;;;;;;;12.16;100.00;102199.81;5232608;28;20080;-69
2023/09/24 00:03:32;;;;;;;5.40;3.87;;;;;;;12.02;100.00;102202.16;5231643;28;20053;-69
2023/09/24 00:06:06;;;;;;;6.78;3.97;;;;;;;11.93;100.00;102206.03;5231922;28;20040;-69
2023/09/24 00:08:38;;;;;;;7.75;3.78;;;;;;;11.99;100.00;102203.13;5231120;28;20124;-68
2023/09/24 00:11:09;;;;;;;10.23;5.00;;;;;;;11.98;100.00;102209.31;5231920;28;20551;-70
2023/09/24 00:13:41;;;;;;;7.20;4.47;;;;;;;12.05;100.00;102212.53;5232849;28;20465;-69
2023/09/24 00:16:13;;;;;;;8.37;4.73;;;;;;;12.02;100.00;102213.53;5232064;28;20045;-69
2023/09/24 00:18:45;;;;;;;7.07;4.03;;;;;;;11.92;100.00;102212.22;5232125;28;20581;-68
2023/09/24 00:21:17;;;;;;;12.03;5.17;;;;;;;12.01;100.00;102216.22;5223708;28;20037;-69
2023/09/24 00:23:49;;;;;;;10.80;4.30;;;;;;;11.89;100.00;102210.56;5226492;28;20022;-68
2023/09/24 00:26:21;;;;;;;8.87;4.50;;;;;;;11.78;100.00;102213.66;5232058;28;20029;-69
2023/09/24 00:28:52;;;;;;;8.20;4.30;;;;;;;11.91;100.00;102210.50;5231600;28;20029;-68
2023/09/24 00:31:25;;;;;;;7.63;4.97;;;;;;;12.00;100.00;102212.72;5230653;28;20025;-68
2023/09/24 00:33:57;;;;;;;8.57;4.13;;;;;;;11.93;100.00;102216.53;5247112;28;20032;-68
2023/09/24 00:36:28;;;;;;;8.83;4.50;;;;;;;11.77;100.00;102214.59;5231214;28;20033;-68
2023/09/24 00:39:01;;;;;;;9.47;4.73;;;;;;;11.92;100.00;102225.34;5231720;28;20465;-68
2023/09/24 00:41:32;;;;;;;7.90;4.80;;;;;;;11.85;100.00;102220.34;5231861;28;20022;-69
2023/09/24 00:44:04;;;;;;;7.53;4.90;;;;;;;11.88;100.00;102227.25;5231738;28;20543;-68
2023/09/24 00:46:35;;;;;;;9.97;5.40;;;;;;;12.06;100.00;102235.25;5231037;28;20132;-68
2023/09/24 00:49:07;;;;;;;7.43;5.50;;;;;;;12.21;100.00;102233.75;5231732;28;20573;-69
2023/09/24 00:51:40;;;;;;;10.57;5.77;;;;;;;12.09;100.00;102236.00;5230924;28;20039;-68
2023/09/24 00:54:12;;;;;;;7.07;4.80;;;;;;;12.00;100.00;102241.63;5246935;28;20046;-70
2023/09/24 00:56:44;;;;;;;9.70;6.07;;;;;;;12.07;100.00;102237.81;5229139;28;20029;-69
2023/09/24 00:59:15;;;;;;;8.07;5.73;;;;;;;12.04;100.00;102243.19;5246480;28;20044;-68
2023/09/24 01:01:48;;;;;;;11.60;5.47;;;;;;;11.93;100.00;102237.53;5227514;28;20485;-68
2023/09/24 01:04:20;;;;;;;11.97;4.90;;;;;;;11.66;100.00;102232.56;5219873;28;20027;-69
2023/09/24 01:06:51;;;;;;;9.13;5.63;;;;;;;11.73;100.00;102224.34;5227531;28;20037;-70
2023/09/24 01:09:23;;;;;;;10.07;6.27;;;;;;;11.79;100.00;102223.25;5245336;28;20112;-68
2023/09/24 01:11:54;;;;;;;8.60;5.30;;;;;;;11.70;100.00;102221.00;5226429;28;20168;-70
2023/09/24 01:14:26;;;;;;;10.10;5.00;;;;;;;11.77;100.00;102227.69;5229197;28;20032;-68
2023/09/24 01:16:58;;;;;;;7.47;5.37;;;;;;;11.69;100.00;102237.69;5216150;28;20480;-68
2023/09/24 01:19:29;;;;;;;8.97;5.83;;;;;;;11.70;100.00;102231.50;5245503;28;20033;-69
2023/09/24 01:22:01;;;;;;;9.73;5.40;;;;;;;11.74;100.00;102233.09;5223510;28;20021;-70
2023/09/24 01:24:33;;;;;;;8.07;5.90;;;;;;;11.71;100.00;102234.06;5215212;28;20025;-68
2023/09/24 01:27:04;;;;;;;11.87;6.10;;;;;;;11.55;100.00;102231.25;5231511;28;20018;-68
2023/09/24 01:29:36;;;;;;;9.53;5.47;;;;;;;11.59;100.00;102242.47;5218650;28;20037;-70
2023/09/24 01:32:08;;;;;;;10.80;5.70;;;;;;;11.48;100.00;102229.78;5217400;28;20025;-68
2023/09/24 01:34:39;;;;;;;9.00;5.40;;;;;;;11.56;100.00;102230.31;5231194;28;20029;-68
2023/09/24 01:37:11;;;;;;;11.80;5.10;;;;;;;11.60;100.00;102234.53;5228524;28;20028;-70
2023/09/24 01:39:42;;;;;;;8.00;6.13;;;;;;;11.36;100.00;102212.78;5225565;28;20132;-69
2023/09/24 01:42:13;;;;;;;11.40;6.40;;;;;;;11.66;100.00;102229.94;5227220;28;20050;-68
2023/09/24 01:44:45;;;;;;;9.53;6.27;;;;;;;11.47;100.00;102223.69;5231894;28;20113;-67
2023/09/24 01:47:16;;;;;;;7.80;5.27;;;;;;;11.40;100.00;102218.78;5230933;28;20124;-69
2023/09/24 01:49:49;;;;;;;11.57;6.47;;;;;;;11.24;100.00;102227.28;5230387;28;20029;-72
2023/09/24 01:52:20;;;;;;;9.80;6.43;;;;;;;11.22;100.00;102229.94;5230806;28;20013;-69
2023/09/24 01:54:52;;;;;;;9.67;6.27;;;;;;;11.28;100.00;102228.84;5231136;28;20073;-69
2023/09/24 01:57:23;;;;;;;12.47;6.47;;;;;;;11.29;100.00;102232.31;5230588;28;20025;-69
2023/09/24 01:59:56;;;;;;;12.83;7.10;;;;;;;11.31;100.00;102230.50;5230998;28;20101;-68
2023/09/24 02:02:33;;;;;;;9.30;6.77;;;;;;;11.34;100.00;102232.97;5230687;28;20018;-68
2023/09/24 02:05:10;;;;;;;10.17;5.93;;;;;;;11.25;100.00;102234.22;5229855;28;20025;-69
2023/09/24 02:07:41;;;;;;;12.67;6.40;;;;;;;11.36;100.00;102232.00;5231386;28;20075;-68
2023/09/24 02:10:16;;;;;;;8.30;6.07;;;;;;;11.27;100.00;102228.91;5230374;28;20432;-69
2023/09/24 02:12:47;;;;;;;12.87;6.37;;;;;;;11.16;100.00;102210.97;5228811;28;20136;-71
2023/09/24 02:15:19;;;;;;;9.97;6.43;;;;;;;11.32;100.00;102230.44;5221026;28;20026;-68
2023/09/24 02:17:50;;;;;;;10.43;6.70;;;;;;;11.41;100.00;102241.44;5226426;28;20021;-68
2023/09/24 02:20:27;;;;;;;9.07;6.33;;;;;;;11.36;100.00;102246.91;5230406;28;20037;-69
2023/09/24 02:23:00;;;;;;;10.90;6.30;;;;;;;11.10;100.00;102241.75;5230624;28;20029;-69
2023/09/24 02:25:35;;;;;;;10.70;6.87;;;;;;;11.01;100.00;102250.00;5220585;28;20026;-68
2023/09/24 02:28:06;;;;;;;10.70;5.68;;;;;;;11.17;100.00;102257.28;5215970;28;20025;-70
2023/09/24 02:30:37;;;;;;;13.33;6.50;;;;;;;10.95;100.00;102243.22;5233481;28;20388;-68
2023/09/24 02:33:09;;;;;;;9.50;5.87;;;;;;;11.11;100.00;102253.97;5233206;28;20025;-68
2023/09/24 02:35:40;;;;;;;11.67;6.67;;;;;;;11.16;100.00;102255.53;5234031;28;20022;-70
2023/09/24 02:38:11;;;;;;;10.47;6.40;;;;;;;11.09;100.00;102247.94;5233954;28;20123;-71
2023/09/24 02:40:43;;;;;;;8.80;5.80;;;;;;;11.07;100.00;102255.00;5234451;28;20025;-68
2023/09/24 02:43:15;;;;;;;7.57;5.63;;;;;;;11.07;100.00;102252.38;5234201;28;20060;-68
2023/09/24 02:45:46;;;;;;;12.90;6.80;;;;;;;11.00;100.00;102243.91;5234484;28;20021;-69
2023/09/24 02:48:18;;;;;;;9.73;6.47;;;;;;;11.03;100.00;102261.25;5233158;28;20551;-70
2023/09/24 02:50:50;;;;;;;9.17;6.17;;;;;;;11.08;100.00;102254.06;5233698;28;20045;-68
2023/09/24 02:53:22;;;;;;;9.77;6.07;;;;;;;10.95;100.00;102252.84;5232141;28;20021;-68
2023/09/24 02:55:54;;;;;;;8.30;5.97;;;;;;;10.96;100.00;102251.97;5228772;28;20475;-68
2023/09/24 02:58:25;;;;;;;8.23;5.67;;;;;;;10.97;100.00;102254.50;5227848;28;20028;-69
2023/09/24 03:00:57;;;;;;;10.47;6.23;;;;;;;10.80;100.00;102255.16;5234217;28;20030;-69
2023/09/24 03:03:29;;;;;;;7.50;5.37;;;;;;;10.87;100.00;102255.78;5233570;28;20029;-68
2023/09/24 03:06:00;;;;;;;8.53;5.97;;;;;;;10.79;100.00;102256.06;5226393;28;20126;-68
2023/09/24 03:08:32;;;;;;;12.57;6.17;;;;;;;10.77;100.00;102256.13;5227091;28;20025;-70
2023/09/24 03:11:14;;;;;;;10.10;5.37;;;;;;;10.87;100.00;102261.03;5233441;28;20022;-68
2023/09/24 03:13:45;;;;;;;9.13;5.97;;;;;;;10.68;100.00;102261.72;5233901;28;20033;-68
2023/09/24 03:16:17;;;;;;;8.97;5.50;;;;;;;10.77;100.00;102263.13;5218746;28;20029;-68
2023/09/24 03:18:48;;;;;;;8.87;5.73;;;;;;;10.74;100.00;102260.63;5233574;28;20483;-70
2023/09/24 03:21:19;;;;;;;8.77;5.70;;;;;;;10.75;100.00;102257.94;5233046;28;20026;-69
2023/09/24 03:23:52;;;;;;;8.80;5.00;;;;;;;10.74;100.00;102265.88;5233222;28;20025;-68
2023/09/24 03:26:23;;;;;;;10.90;5.60;;;;;;;10.66;100.00;102279.28;5233491;28;20095;-68
2023/09/24 03:28:54;;;;;;;6.23;5.40;;;;;;;10.70;100.00;102266.91;5233291;28;20033;-70
2023/09/24 03:31:25;;;;;;;7.67;5.27;;;;;;;10.72;100.00;102272.94;5232217;28;20084;-69
2023/09/24 03:33:57;;;;;;;10.17;5.50;;;;;;;10.68;100.00;102274.84;5232941;28;20140;-68
2023/09/24 03:36:28;;;;;;;8.13;5.33;;;;;;;10.56;100.00;102278.75;5232460;28;20041;-69
2023/09/24 03:39:00;;;;;;;9.03;4.90;;;;;;;10.57;100.00;102284.84;5221662;28;20040;-70
2023/09/24 03:41:31;;;;;;;11.63;6.13;;;;;;;10.49;100.00;102285.13;5227946;28;20033;-69
2023/09/24 03:44:03;;;;;;;13.10;5.63;;;;;;;10.52;100.00;102285.03;5233158;28;20091;-69
2023/09/24 03:46:35;;;;;;;6.20;4.80;;;;;;;10.66;100.00;102295.00;5230115;28;20033;-68
2023/09/24 03:49:06;;;;;;;8.00;5.17;;;;;;;10.56;100.00;102283.97;5225869;28;20471;-69
2023/09/24 03:51:38;;;;;;;7.50;4.80;;;;;;;10.50;100.00;102279.84;5229490;28;20200;-70
2023/09/24 03:54:09;;;;;;;8.57;5.43;;;;;;;10.53;100.00;102284.09;5225600;28;20045;-69
2023/09/24 03:56:41;;;;;;;5.57;4.97;;;;;;;10.46;100.00;102290.44;5232682;28;20120;-68
2023/09/24 03:59:13;;;;;;;6.60;4.67;;;;;;;10.59;100.00;102294.38;5231778;28;20033;-68
2023/09/24 04:01:44;;;;;;;7.57;5.20;;;;;;;10.52;100.00;102285.03;5232607;28;20495;-68
2023/09/24 04:04:16;;;;;;;10.87;4.80;;;;;;;10.53;100.00;102300.69;5231937;28;20053;-70
2023/09/24 04:06:47;;;;;;;9.70;5.67;;;;;;;10.55;100.00;102292.75;5245786;28;20122;-70
2023/09/24 04:09:18;;;;;;;11.33;5.13;;;;;;;10.55;100.00;102292.75;5230652;28;20079;-69
2023/09/24 04:11:50;;;;;;;6.83;4.87;;;;;;;10.45;100.00;102297.47;5232459;28;20031;-68
2023/09/24 04:14:21;;;;;;;7.83;4.87;;;;;;;10.45;100.00;102302.69;5229234;28;20017;-69
2023/09/24 04:16:52;;;;;;;5.53;4.13;;;;;;;10.45;100.00;102302.69;5223886;28;20037;-69
2023/09/24 04:19:24;;;;;;;8.03;4.80;;;;;;;10.41;100.00;102301.09;5229465;28;20044;-70
2023/09/24 04:21:56;;;;;;;7.60;4.73;;;;;;;10.56;100.00;102304.94;5235505;28;20029;-70
2023/09/24 04:24:27;;;;;;;6.53;4.33;;;;;;;10.48;100.00;102296.50;5231998;28;20036;-70
2023/09/24 04:27:00;;;;;;;9.20;4.43;;;;;;;10.39;100.00;102309.00;5231692;28;20453;-68
2023/09/24 04:29:31;;;;;;;7.60;4.40;;;;;;;10.49;100.00;102309.53;5232108;28;20056;-69
2023/09/24 04:32:02;;;;;;;9.97;4.40;;;;;;;10.48;100.00;102312.22;5232563;28;20707;-68
2023/09/24 04:34:35;;;;;;;7.60;4.80;;;;;;;10.62;100.00;102311.72;5228894;28;20550;-67
2023/09/24 04:37:06;;;;;;;11.93;5.03;;;;;;;10.62;100.00;102315.22;5221335;28;20030;-70
2023/09/24 04:39:37;;;;;;;7.07;4.00;;;;;;;10.62;100.00;102309.97;5230940;28;20049;-69
2023/09/24 04:42:11;;;;;;;7.97;4.77;;;;;;;10.46;100.00;102312.25;5231630;28;20500;-68
2023/09/24 04:44:42;;;;;;;11.67;4.93;;;;;;;10.57;100.00;102311.03;5232011;28;20120;-68
2023/09/24 04:47:13;;;;;;;8.37;4.50;;;;;;;10.43;100.00;102309.75;5229723;28;20112;-68
2023/09/24 04:49:45;;;;;;;8.10;4.63;;;;;;;10.36;100.00;102310.88;5224306;28;20038;-69
2023/09/24 04:52:16;;;;;;;10.93;4.57;;;;;;;10.57;100.00;102311.03;5225528;28;20121;-69
2023/09/24 04:54:47;;;;;;;7.40;4.70;;;;;;;10.46;100.00;102308.75;5222092;28;20128;-72
2023/09/24 04:57:19;;;;;;;10.73;5.03;;;;;;;10.51;100.00;102312.09;5229100;28;20033;-68
2023/09/24 04:59:53;;;;;;;12.17;6.57;;;;;;;10.53;100.00;102305.06;5231490;28;20059;-68
2023/09/24 05:02:24;;;;;;;10.55;4.50;;;;;;;10.53;100.00;102310.28;5233079;28;20017;-68
2023/09/24 05:04:56;;;;;;;6.63;4.20;;;;;;;10.36;100.00;102303.00;5230142;28;20086;-69
2023/09/24 05:07:27;;;;;;;8.60;4.63;;;;;;;10.51;100.00;102317.34;5231311;28;20388;-70
2023/09/24 05:09:59;;;;;;;7.57;4.33;;;;;;;10.38;100.00;102307.31;5231418;28;20029;-69
2023/09/24 05:12:30;;;;;;;9.00;4.77;;;;;;;10.49;100.00;102319.19;5229438;28;20017;-68
2023/09/24 05:15:03;;;;;;;9.67;6.23;;;;;;;10.26;100.00;102315.59;5229511;28;20087;-69
2023/09/24 05:17:34;;;;;;;12.50;4.57;;;;;;;10.35;100.00;102320.47;5231135;28;20076;-68
2023/09/24 05:20:08;;;;;;;8.90;4.30;;;;;;;10.23;100.00;102316.53;5229340;28;20441;-69
2023/09/24 05:22:39;;;;;;;5.43;4.18;;;;;;;10.30;100.00;102327.63;5246157;28;20025;-68
2023/09/24 05:25:11;;;;;;;8.63;4.43;;;;;;;10.33;100.00;102327.56;5230557;28;20079;-70
2023/09/24 05:27:42;;;;;;;8.23;4.77;;;;;;;10.29;100.00;102313.72;5230442;28;20017;-68
2023/09/24 05:30:13;;;;;;;5.87;4.27;;;;;;;10.20;100.00;102334.09;5230554;28;20052;-68
2023/09/24 05:32:45;;;;;;;9.83;3.97;;;;;;;10.32;100.00;102331.06;5231087;28;20049;-68
2023/09/24 05:35:16;;;;;;;9.40;5.13;;;;;;;10.36;100.00;102337.91;5228974;28;20021;-70
2023/09/24 05:37:48;;;;;;;11.83;4.17;;;;;;;10.33;100.00;102343.28;5230434;28;20467;-69
2023/09/24 05:40:19;;;;;;;9.70;4.47;;;;;;;10.34;100.00;102342.34;5224562;28;20024;-68
2023/09/24 05:42:51;;;;;;;9.33;4.90;;;;;;;10.14;100.00;102345.66;5226558;28;20033;-68
2023/09/24 05:45:22;;;;;;;9.73;4.00;;;;;;;10.20;100.00;102363.78;5229604;28;20144;-69
2023/09/24 05:47:53;;;;;;;12.93;4.33;;;;;;;10.24;100.00;102356.66;5227746;28;20021;-68
2023/09/24 05:50:25;;;;;;;8.43;5.03;;;;;;;10.32;100.00;102354.63;5227793;28;20120;-70
2023/09/24 05:52:56;;;;;;;6.67;4.50;;;;;;;10.32;100.00;102356.38;5228719;28;20018;-69
2023/09/24 05:55:27;;;;;;;9.50;4.30;;;;;;;10.19;100.00;102361.22;5230583;28;20049;-69
2023/09/24 05:57:58;;;;;;;9.30;4.67;;;;;;;10.21;100.00;102378.56;5228794;28;20200;-68
2023/09/24 06:00:31;;;;;;;8.27;4.30;;;;;;;10.32;100.00;102372.97;5246031;28;20033;-68
2023/09/24 06:03:03;;;;;;;7.43;4.50;;;;;;;10.31;100.00;102371.28;5232582;28;20101;-68
2023/09/24 06:05:38;;;;;;;7.97;4.67;;;;;;;10.40;100.00;102375.34;5233571;28;20026;-69
2023/09/24 06:08:10;;;;;;;10.37;3.97;;;;;;;10.50;100.00;102366.28;5235000;28;20065;-68
2023/09/24 06:10:44;;;;;;;6.07;3.60;;;;;;;10.54;100.00;102369.66;5232530;28;20064;-68
2023/09/24 06:13:16;;;;;;;20.80;4.77;;;;;;;10.40;100.00;102368.31;5234031;28;20040;-68
2023/09/24 06:15:48;;;;;;;11.50;4.43;;;;;;;10.56;100.00;102369.59;5228540;28;20041;-71
2023/09/24 06:18:20;;;;;;;10.00;4.60;;;;;;;10.51;100.00;102378.47;5234044;28;20452;-70
2023/09/24 06:20:52;;;;;;;6.13;4.23;;;;;;;10.44;100.00;102379.53;5229773;28;20034;-70
2023/09/24 06:23:23;;;;;;;8.97;3.70;;;;;;;10.51;100.00;102378.47;5234521;28;20582;-68
2023/09/24 06:25:56;;;;;;;10.63;4.50;;;;;;;10.52;100.00;102387.19;5233556;28;20124;-70
2023/09/24 06:28:27;;;;;;;9.33;4.40;;;;;;;10.59;100.00;102378.19;5234460;28;20033;-68
2023/09/24 06:31:03;;;;;;;6.37;3.97;;;;;;;10.65;100.00;102372.72;5231084;28;20044;-69
2023/09/24 06:33:34;;;;;;;10.73;5.07;;;;;;;10.65;100.00;102387.59;5233755;28;20439;-69
2023/09/24 06:36:07;;;;;;;8.07;4.13;;;;;;;10.60;100.00;102358.06;5232797;28;20052;-68
2023/09/24 06:38:39;;;;;;;7.90;4.03;;;;;;;10.76;100.00;102389.84;5233874;28;20029;-69
2023/09/24 06:41:10;;;;;;;12.03;4.97;;;;;;;10.73;100.00;102393.44;5230982;28;20501;-70
2023/09/24 06:43:41;;;;;;;10.23;4.50;;;;;;;10.77;100.00;102387.16;5233698;28;20029;-68
2023/09/24 06:46:13;;;;;;;8.63;3.70;;;;;;;10.85;100.00;102393.91;5260296;28;20095;-69
2023/09/24 06:48:44;;;;;;;9.33;3.80;;;;;;;10.93;100.00;102398.84;5231601;28;20033;-68
2023/09/24 06:51:15;;;;;;;7.80;3.83;;;;;;;10.90;100.00;102399.81;5239333;28;20061;-68
2023/09/24 06:53:50;;;;;;;7.47;3.80;;;;;;;10.96;100.00;102391.72;5233363;28;20261;-69
2023/09/24 06:56:21;;;;;;;9.27;4.20;;;;;;;11.03;100.00;102402.00;5232105;28;20043;-69
2023/09/24 06:58:53;;;;;;;8.73;4.87;;;;;;;10.96;100.00;102385.66;5232443;28;20034;-69
2023/09/24 07:01:24;;;;;;;8.30;4.57;;;;;;;11.03;100.00;102397.59;5235390;28;20044;-68
2023/09/24 07:03:56;;;;;;;13.33;5.40;;;;;;;11.15;100.00;102400.69;5227989;28;20044;-69
2023/09/24 07:06:28;;;;;;;9.83;4.23;;;;;;;11.24;100.00;102405.59;5248583;28;20128;-68
2023/09/24 07:09:00;;;;;;;11.83;4.17;;;;;;;11.23;100.00;102411.75;5233025;28;20163;-68
2023/09/24 07:11:34;;;;;;;12.17;4.73;;;;;;;11.25;100.00;102394.19;5233494;28;20029;-68
2023/09/24 07:14:05;;;;;;;8.23;4.50;;;;;;;11.37;100.00;102398.97;5247155;28;20116;-69
2023/09/24 07:16:37;;;;;;;13.90;5.73;;;;;;;11.43;100.00;102394.41;5227702;28;20734;-68
2023/09/24 07:19:08;;;;;;;10.47;4.70;;;;;;;11.52;100.00;102403.69;5232068;28;20468;-68
2023/09/24 07:21:39;;;;;;;11.80;5.60;;;;;;;11.58;100.00;102404.28;5233605;28;20025;-68
2023/09/24 07:24:11;;;;;;;11.63;6.10;;;;;;;11.60;100.00;102405.09;5233109;28;20051;-70
2023/09/24 07:26:43;;;;;;;12.40;5.40;;;;;;;11.82;100.00;102417.34;5233055;28;20025;-68
2023/09/24 07:29:14;;;;;;;14.70;6.00;;;;;;;11.78;100.00;102418.38;5233168;28;20025;-69
2023/09/24 07:31:45;;;;;;;10.23;5.47;;;;;;;11.92;100.00;102411.75;5233142;28;20112;-68
2023/09/24 07:34:16;;;;;;;10.17;5.50;;;;;;;11.94;100.00;102416.00;5231215;28;20031;-69
2023/09/24 07:36:48;;;;;;;12.07;5.63;;;;;;;12.00;100.00;102403.53;5231808;28;20116;-69
2023/09/24 07:39:19;;;;;;;11.23;4.90;;;;;;;12.29;100.00;102422.53;5233150;28;20036;-68
2023/09/24 07:41:50;;;;;;;12.63;5.00;;;;;;;12.37;100.00;102423.06;5227906;28;20056;-68
2023/09/24 07:44:22;;;;;;;9.43;5.33;;;;;;;12.51;100.00;102424.25;5247069;28;20044;-69
2023/09/24 07:46:54;;;;;;;13.27;4.73;;;;;;;12.70;100.00;102424.31;5227161;28;20031;-70
2023/09/24 07:49:25;;;;;;;11.80;5.03;;;;;;;12.85;100.00;102432.44;5229018;28;20136;-69
2023/09/24 07:51:56;;;;;;;13.13;4.43;;;;;;;13.24;100.00;102434.22;5229571;28;20108;-68
2023/09/24 07:54:28;;;;;;;7.13;4.17;;;;;;;13.55;100.00;102438.09;5218821;28;20041;-70
2023/09/24 07:57:00;;;;;;;11.47;4.90;;;;;;;13.60;100.00;102439.63;5241077;28;20055;-69
2023/09/24 07:59:31;;;;;;;7.27;3.50;;;;;;;13.73;100.00;102446.03;5232787;28;20034;-71
2023/09/24 08:02:02;;;;;;;7.70;3.50;;;;;;;14.05;100.00;102439.28;5231289;28;20018;-69
2023/09/24 08:04:34;;;;;;;7.70;3.60;;;;;;;14.42;100.00;102445.34;5230856;28;20076;-70
2023/09/24 08:07:05;;;;;;;8.07;3.87;;;;;;;14.94;100.00;102434.84;5232582;28;20211;-69
2023/09/24 08:09:38;;;;;;;5.70;3.27;;;;;;;15.53;100.00;102433.44;5231446;28;20357;-68
2023/09/24 08:12:09;;;;;;;8.70;2.97;;;;;;;16.12;100.00;102438.09;5231960;28;20041;-68
2023/09/24 08:14:40;;;;;;;4.77;2.60;;;;;;;17.28;100.00;102431.19;5231594;28;20068;-68
2023/09/24 08:17:12;;;;;;;5.33;2.47;;;;;;;18.30;100.00;102436.16;5232214;28;20108;-69
2023/09/24 08:19:43;;;;;;;8.03;2.60;;;;;;;19.23;100.00;102436.03;5230046;28;20061;-69
2023/09/24 08:22:14;;;;;;;6.30;2.10;;;;;;;19.71;100.00;102437.00;5231685;28;20025;-70
2023/09/24 08:24:45;;;;;;;4.37;2.10;;;;;;;20.78;100.00;102441.41;5229077;28;20087;-70
2023/09/24 08:27:17;;;;;;;6.05;2.38;;;;;;;21.29;100.00;102443.69;5229900;28;20053;-69
2023/09/24 08:29:48;;;;;;;5.63;2.15;;;;;;;21.92;100.00;102447.53;5231070;28;20025;-67
2023/09/24 08:32:19;;;;;;;5.18;2.17;;;;;;;22.38;100.00;102447.25;5232093;28;20121;-70
2023/09/24 08:34:51;;;;;;;6.05;2.15;;;;;;;23.26;100.00;102450.44;5229943;28;20041;-71
2023/09/24 08:37:22;;;;;;;4.53;1.95;;;;;;;23.89;100.00;102435.03;5231519;28;20025;-70
2023/09/24 08:39:53;;;;;;;6.03;2.30;;;;;;;24.59;90.84;102449.16;5231613;28;20025;-69
2023/09/24 08:42:25;;;;;;;5.75;1.52;;;;;;;24.69;68.60;102457.13;5231242;28;20057;-68
2023/09/24 08:45:09;;;;;;;9.48;2.50;;;;;;;25.67;62.96;102445.03;5223570;28;20034;-68
2023/09/24 08:47:42;;;;;;;7.50;2.03;;;;;;;26.66;55.90;102453.94;5245847;28;20433;-71
2023/09/24 08:50:14;;;;;;;3.95;1.85;;;;;;;26.77;49.28;102467.09;5228769;28;20055;-69
2023/09/24 08:52:46;;;;;;;6.38;1.75;;;;;;;26.92;43.42;102461.94;5226693;28;20033;-70
2023/09/24 08:55:17;;;;;;;7.28;2.33;;;;;;;27.03;41.53;102468.91;5228185;28;20662;-73
2023/09/24 08:57:50;;;;;;;4.57;2.08;;;;;;;26.31;45.10;102460.09;5230154;28;20132;-69
2023/09/24 09:00:21;;;;;;;3.92;1.55;;;;;;;28.32;41.21;102465.97;5231686;28;20021;-69
2023/09/24 09:02:52;;;;;;;4.50;2.03;;;;;;;28.64;40.17;102464.22;5227820;28;20037;-69
2023/09/24 09:05:25;;;;;;;4.93;1.48;;;;;;;28.79;38.00;102464.31;5230467;28;20020;-69
2023/09/24 09:07:59;;;;;;;8.15;2.13;;;;;;;29.11;38.80;102458.97;5230532;28;20037;-70
2023/09/24 09:10:32;;;;;;;3.80;1.75;;;;;;;29.03;37.00;102461.72;5230664;28;20055;-70
2023/09/24 09:13:05;;;;;;;4.25;1.40;;;;;;;29.58;37.68;102464.38;5230682;28;20033;-69
2023/09/24 09:15:38;;;;;;;6.75;2.00;;;;;;;30.05;35.91;102462.50;5225060;28;20071;-71
2023/09/24 09:18:23;;;;;;;5.50;1.73;;;;;;;30.93;38.50;102462.84;5230690;28;20029;-70
2023/09/24 09:20:59;;;;;;;4.80;1.77;;;;;;;30.74;35.95;102448.88;5216707;28;20041;-69
2023/09/24 09:23:34;;;;;;;5.40;1.70;;;;;;;31.20;34.15;102449.63;5231210;28;20022;-69
2023/09/24 09:26:06;;;;;;;4.32;1.70;;;;;;;31.57;33.57;102452.31;5230640;28;20026;-71
2023/09/24 09:28:38;;;;;;;3.20;1.50;;;;;;;31.26;31.94;102437.22;5231310;28;20037;-70
2023/09/24 09:31:11;;;;;;;6.20;2.35;;;;;;;31.38;33.31;102434.81;5224513;28;20036;-68
2023/09/24 09:33:44;;;;;;;3.25;1.42;;;;;;;30.76;32.66;102437.88;5229910;28;20025;-69
2023/09/24 09:36:20;;;;;;;5.00;1.80;;;;;;;31.37;32.80;102431.28;5226290;28;20072;-69
2023/09/24 09:38:53;;;;;;;4.05;1.75;;;;;;;31.98;31.52;102423.69;5227189;28;20037;-69
2023/09/24 09:41:25;;;;;;;5.28;2.05;;;;;;;30.96;32.15;102429.19;5235831;28;20017;-70
2023/09/24 09:44:06;;;;;;;4.30;1.00;;;;;;;32.38;32.34;102415.97;5231022;28;20033;-68
2023/09/24 09:46:39;;;;;;;3.55;1.45;;;;;;;31.98;32.29;102423.69;5231157;28;20033;-69
2023/09/24 09:49:12;;;;;;;3.42;1.67;;;;;;;30.04;31.30;102409.47;5229809;28;20022;-69
2023/09/24 09:51:48;;;;;;;3.45;1.48;;;;;;;32.28;31.64;102411.75;5228017;28;20029;-70
2023/09/24 09:54:22;;;;;;;4.63;2.08;;;;;;;32.25;30.79;102409.44;5230691;28;20046;-69
2023/09/24 09:56:55;;;;;;;2.58;1.20;;;;;;;31.41;30.35;102418.22;5241991;28;20034;-68
2023/09/24 09:59:27;;;;;;;4.88;1.40;;;;;;;33.13;29.78;102407.03;5228911;28;20388;-70
2023/09/24 10:02:00;;;;;;;3.88;1.55;;;;;;;33.23;29.04;102411.25;5227206;28;20025;-70
2023/09/24 10:04:33;;;;;;;4.55;1.85;;;;;;;32.89;29.24;102405.72;5243458;28;20025;-69
2023/09/24 10:07:05;;;;;;;6.78;1.40;;;;;;;32.45;30.34;102401.41;5227620;28;20026;-73
2023/09/24 10:09:37;;;;;;;3.47;1.60;;;;;;;32.52;27.93;102396.00;5230356;28;20074;-68
2023/09/24 10:12:09;;;;;;;7.45;4.78;;;;;;;33.18;29.07;102388.25;5229871;28;20013;-68
2023/09/24 10:14:42;;;;;;;3.58;1.35;;;;;;;32.29;27.73;102380.88;5225685;28;20080;-69
2023/09/24 10:17:17;;;;;;;3.33;1.10;;;;;;;32.60;28.51;102389.59;5229789;28;20044;-69
2023/09/24 10:19:55;;;;;;;3.13;1.38;;;;;;;32.43;28.60;102386.38;5228724;28;20026;-69
2023/09/24 10:22:32;;;;;;;3.42;1.27;;;;;;;31.71;29.49;102385.56;5230542;28;20441;-70
2023/09/24 10:25:32;;;;;;;3.67;1.73;;;;;;;30.75;31.65;102379.44;5227705;28;20039;-69
2023/09/24 10:28:05;;;;;;;2.88;1.30;;;;;;;29.35;31.26;102374.34;5225632;28;20832;-68
2023/09/24 10:31:03;;;;;;;4.65;1.80;;;;;;;29.01;33.41;102372.91;5222658;28;20393;-67
2023/09/24 10:33:53;;;;;;;3.28;1.30;;;;;;;28.56;34.54;102375.31;5228036;28;20110;-69
2023/09/24 10:36:30;;;;;;;2.67;1.17;;;;;;;28.49;33.30;102365.25;5225426;28;20049;-68
2023/09/24 10:39:05;;;;;;;3.08;1.35;;;;;;;28.79;33.10;102375.38;5228021;28;20584;-69
2023/09/24 10:42:08;;;;;;;3.22;1.20;;;;;;;27.84;36.40;102376.00;5228672;28;20063;-67
2023/09/24 10:44:40;;;;;;;6.57;1.48;;;;;;;27.48;34.67;102369.13;5225963;28;20728;-67
2023/09/24 10:47:25;;;;;;;6.03;1.63;;;;;;;27.41;36.45;102368.97;5229678;28;20111;-68
2023/09/24 10:50:20;;;;;;;2.92;1.35;;;;;;;27.28;35.58;102366.75;5225559;28;20041;-68
2023/09/24 10:53:02;;;;;;;3.38;1.50;;;;;;;27.49;35.20;102360.03;5229815;28;20431;-68
2023/09/24 10:55:36;;;;;;;2.63;1.10;;;;;;;27.14;34.85;102359.38;5232744;28;20076;-66
2023/09/24 10:58:13;;;;;;;6.20;1.55;;;;;;;27.05;35.67;102362.03;5233060;28;20073;-66
2023/09/24 11:00:50;;;;;;;3.75;1.23;;;;;;;26.42;36.04;102364.19;5229170;28;20025;-67
2023/09/24 11:03:22;;;;;;;2.17;1.20;;;;;;;26.43;35.76;102349.75;5233002;28;20036;-67
2023/09/24 11:05:54;;;;;;;4.18;1.38;;;;;;;25.71;37.52;102349.00;5232912;28;20026;-71
2023/09/24 11:08:30;;;;;;;4.63;1.55;;;;;;;26.43;36.69;102355.13;5229865;28;20120;-72
2023/09/24 11:11:02;;;;;;;3.72;1.48;;;;;;;25.71;39.55;102357.06;5230209;28;20038;-70
2023/09/24 11:13:33;;;;;;;4.43;1.48;;;;;;;26.20;36.88;102364.56;5232229;28;20092;-69
2023/09/24 11:16:04;;;;;;;4.15;1.70;;;;;;;25.34;37.85;102357.03;5231167;28;20033;-69
2023/09/24 11:18:36;;;;;;;3.55;1.33;;;;;;;25.55;37.41;102358.59;5228725;28;20037;-68
2023/09/24 11:21:08;;;;;;;4.57;1.77;;;;;;;25.94;37.60;102352.00;5218996;28;20068;-69
2023/09/24 11:23:39;;;;;;;4.07;1.40;;;;;;;25.85;38.38;102348.41;5229780;28;20025;-68
2023/09/24 11:26:10;;;;;;;2.15;1.23;;;;;;;25.33;38.42;102351.84;5232831;28;20056;-69
2023/09/24 11:28:41;;;;;;;2.95;1.52;;;;;;;25.22;39.22;102361.78;5228537;28;20029;-67
2023/09/24 11:31:23;;;;;;;3.90;1.58;;;;;;;25.94;38.51;102364.56;5226778;28;20030;-68
2023/09/24 11:33:57;;;;;;;3.28;1.50;;;;;;;25.57;38.10;102351.19;5222456;28;20087;-69
2023/09/24 11:36:28;;;;;;;3.38;1.30;;;;;;;25.62;36.40;102354.25;5225239;28;20029;-69
2023/09/24 11:39:03;;;;;;;2.85;1.60;;;;;;;25.76;37.24;102344.00;5231332;28;20471;-70
2023/09/24 11:41:35;;;;;;;5.38;1.70;;;;;;;25.56;36.13;102351.34;5230197;28;20025;-69